createdAt,value
2019-03-12T00:01:53.425Z,5.43
2019-03-12T00:04:22.552Z,5.71
2019-03-12T00:06:51.690Z,5.78
2019-03-12T00:09:22.594Z,5.34
2019-03-12T00:11:51.701Z,5.58
2019-03-12T00:14:20.936Z,5.60
2019-03-12T00:16:53.275Z,5.67
2019-03-12T00:19:24.527Z,5.37
2019-03-12T00:21:55.588Z,5.32
2019-03-12T00:24:26.499Z,5.39
2019-03-12T00:26:55.806Z,5.37
2019-03-12T00:29:24.935Z,5.52
2019-03-12T00:31:54.241Z,5.22
2019-03-12T00:34:24.548Z,5.11
2019-03-12T00:36:56.625Z,5.29
2019-03-12T00:39:28.062Z,5.66
2019-03-12T00:42:01.269Z,5.72
2019-03-12T00:44:30.452Z,5.66
2019-03-12T00:47:01.562Z,5.54
2019-03-12T00:49:30.674Z,6.17
2019-03-12T00:52:04.159Z,5.50
2019-03-12T00:54:36.768Z,5.94
2019-03-12T00:57:07.240Z,6.07
2019-03-12T00:59:40.074Z,6.53
2019-03-12T01:02:13.117Z,5.81
2019-03-12T01:04:43.207Z,6.20
2019-03-12T01:07:12.334Z,5.44
2019-03-12T01:09:43.944Z,5.54
2019-03-12T01:12:13.042Z,5.45
2019-03-12T01:14:45.234Z,5.83
2019-03-12T01:17:14.387Z,6.34
2019-03-12T01:19:46.330Z,6.23
2019-03-12T01:22:17.126Z,6.34
2019-03-12T01:24:46.618Z,6.58
2019-03-12T01:27:16.740Z,6.59
2019-03-12T01:29:46.946Z,6.51
2019-03-12T01:32:20.499Z,6.84
2019-03-12T01:34:49.617Z,6.91
2019-03-12T01:37:18.774Z,7.56
2019-03-12T01:39:49.655Z,7.35
2019-03-12T01:42:18.744Z,7.67
2019-03-12T01:44:47.895Z,8.17
2019-03-12T01:47:17.041Z,7.81
2019-03-12T01:49:46.194Z,7.38
2019-03-12T01:52:20.964Z,5.17
2019-03-12T01:54:53.117Z,7.13
2019-03-12T01:57:22.537Z,7.72
2019-03-12T01:59:51.640Z,7.54
2019-03-12T02:02:20.870Z,6.82
2019-03-12T02:04:50.196Z,6.93
2019-03-12T02:07:19.622Z,6.86
2019-03-12T02:09:49.142Z,6.41
2019-03-12T02:12:21.443Z,6.33
2019-03-12T02:14:51.886Z,6.45
2019-03-12T02:17:21.002Z,6.12
2019-03-12T02:19:51.353Z,6.41
2019-03-12T02:22:25.709Z,6.75
2019-03-12T02:24:55.010Z,6.52
2019-03-12T02:27:24.335Z,7.27
2019-03-12T02:29:55.922Z,7.37
2019-03-12T02:32:25.044Z,7.19
2019-03-12T02:34:54.108Z,7.36
2019-03-12T02:37:23.358Z,7.16
2019-03-12T02:39:52.621Z,6.80
2019-03-12T02:42:23.626Z,6.94
2019-03-12T02:44:52.724Z,6.74
2019-03-12T02:47:21.811Z,6.35
2019-03-12T02:49:51.126Z,6.03
2019-03-12T02:52:20.350Z,6.52
2019-03-12T02:54:49.684Z,6.08
2019-03-12T02:57:18.774Z,6.26
2019-03-12T02:59:49.582Z,6.16
2019-03-12T03:02:18.745Z,6.03
2019-03-12T03:04:49.000Z,5.99
2019-03-12T03:07:38.765Z,6.04
2019-03-12T03:10:14.138Z,5.74
2019-03-12T03:12:43.214Z,5.97
2019-03-12T03:15:20.265Z,6.25
2019-03-12T03:17:49.377Z,6.62
2019-03-12T03:20:19.874Z,6.42
2019-03-12T03:22:52.059Z,6.04
2019-03-12T03:25:27.887Z,6.32
2019-03-12T03:27:55.403Z,5.93
2019-03-12T03:30:24.582Z,5.81
2019-03-12T03:32:53.761Z,6.03
2019-03-12T03:35:26.633Z,6.11
2019-03-12T03:37:59.332Z,5.74
2019-03-12T03:40:31.581Z,5.52
2019-03-12T03:43:00.717Z,5.62
2019-03-12T03:45:29.823Z,5.35
2019-03-12T03:48:00.285Z,5.32
2019-03-12T03:50:29.663Z,5.18
2019-03-12T03:52:58.941Z,5.75
2019-03-12T03:55:30.561Z,5.44
2019-03-12T03:58:05.561Z,5.72
2019-03-12T04:00:37.178Z,3.72
2019-03-12T04:03:06.272Z,5.45
2019-03-12T04:05:35.446Z,5.29
2019-03-12T04:08:10.596Z,5.66
2019-03-12T04:10:35.333Z,5.57
2019-03-12T04:13:04.491Z,-3.94
2019-03-12T04:15:35.404Z,5.33
2019-03-12T04:18:05.014Z,5.68
2019-03-12T04:20:35.716Z,5.64
2019-03-12T04:23:05.948Z,5.76
2019-03-12T04:25:38.749Z,5.54
2019-03-12T04:28:07.903Z,5.61
2019-03-12T04:30:37.311Z,5.61
2019-03-12T04:33:07.989Z,5.64
2019-03-12T04:35:38.449Z,5.77
2019-03-12T04:38:07.559Z,5.80
2019-03-12T04:40:37.111Z,5.33
2019-03-12T04:43:06.699Z,5.37
2019-03-12T04:45:38.303Z,5.15
2019-03-12T04:48:09.314Z,5.06
2019-03-12T04:50:38.455Z,5.06
2019-03-12T04:53:07.639Z,5.17
2019-03-12T04:55:36.798Z,5.30
2019-03-12T04:58:07.077Z,5.26
2019-03-12T05:00:36.804Z,5.08
2019-03-12T05:03:05.990Z,5.23
2019-03-12T05:05:39.671Z,5.07
2019-03-12T05:08:08.833Z,5.05
2019-03-12T05:10:43.068Z,4.72
2019-03-12T05:13:12.268Z,4.71
2019-03-12T05:15:44.137Z,4.55
2019-03-12T05:18:13.362Z,4.36
2019-03-12T05:20:42.539Z,4.29
2019-03-12T05:23:14.260Z,4.23
2019-03-12T05:25:43.433Z,4.36
2019-03-12T05:28:12.551Z,4.36
2019-03-12T05:30:43.156Z,4.75
2019-03-12T05:33:16.908Z,5.08
2019-03-12T05:35:48.617Z,4.52
2019-03-12T05:38:19.012Z,4.51
2019-03-12T05:40:51.023Z,4.43
2019-03-12T05:43:20.831Z,4.50
2019-03-12T05:45:52.673Z,4.42
2019-03-12T05:48:22.979Z,4.11
2019-03-12T05:50:53.820Z,4.01
2019-03-12T05:53:27.042Z,4.13
2019-03-12T05:55:56.496Z,-5.69
2019-03-12T05:58:26.101Z,4.43
2019-03-12T06:00:55.327Z,4.28
2019-03-12T06:03:25.683Z,4.28
2019-03-12T06:05:56.685Z,4.17
2019-03-12T06:08:26.034Z,4.27
2019-03-12T06:10:59.466Z,4.38
2019-03-12T06:13:30.506Z,4.22
2019-03-12T06:16:00.796Z,4.43
2019-03-12T06:18:31.515Z,4.27
2019-03-12T06:21:00.701Z,3.87
2019-03-12T06:23:29.851Z,3.56
2019-03-12T06:26:02.850Z,3.72
2019-03-12T06:28:34.770Z,3.74
2019-03-12T06:31:39.403Z,3.46
2019-03-12T06:34:14.874Z,3.84
2019-03-12T06:36:48.781Z,3.93
2019-03-12T06:39:31.890Z,-2.42
2019-03-12T06:42:10.898Z,3.93
2019-03-12T06:44:57.549Z,4.01
2019-03-12T06:48:03.296Z,3.71
2019-03-12T06:50:40.854Z,3.79
2019-03-12T06:53:24.994Z,3.87
2019-03-12T06:56:10.353Z,3.68
2019-03-12T06:58:55.985Z,3.78
2019-03-12T07:01:50.129Z,4.20
2019-03-12T07:04:47.221Z,4.21
2019-03-12T07:07:45.951Z,4.33
2019-03-12T07:10:30.967Z,4.23
2019-03-12T07:13:25.099Z,4.33
2019-03-12T07:16:14.307Z,4.44
2019-03-12T07:19:03.025Z,4.40
2019-03-12T07:21:41.169Z,4.44
2019-03-12T07:24:32.709Z,4.22
2019-03-12T07:27:12.259Z,4.41
2019-03-12T07:29:56.897Z,4.43
2019-03-12T07:32:56.598Z,4.30
2019-03-12T07:35:41.989Z,4.27
2019-03-12T07:38:32.611Z,4.11
2019-03-12T07:41:22.893Z,4.17
2019-03-12T07:44:01.357Z,4.65
2019-03-12T07:46:55.338Z,4.80
2019-03-12T07:49:49.889Z,4.60
2019-03-12T07:55:21.428Z,4.51
2019-03-12T07:57:59.744Z,4.65
2019-03-12T08:00:37.075Z,4.81
2019-03-12T08:03:34.346Z,4.58
2019-03-12T08:06:22.642Z,4.83
2019-03-12T08:09:13.845Z,5.07
2019-03-12T08:11:58.708Z,4.98
2019-03-12T08:14:44.908Z,5.12
2019-03-12T08:17:42.816Z,5.16
2019-03-12T08:20:30.684Z,5.13
2019-03-12T08:23:16.076Z,5.96
2019-03-12T08:26:03.343Z,5.62
2019-03-12T08:28:52.905Z,5.66
2019-03-12T08:31:50.231Z,5.59
2019-03-12T08:34:32.031Z,5.70
2019-03-12T08:37:16.449Z,6.11
2019-03-12T08:40:04.405Z,5.88
2019-03-12T08:42:54.441Z,6.33
2019-03-12T08:45:36.409Z,6.00
2019-03-12T08:48:24.648Z,6.48
2019-03-12T08:51:04.982Z,3.88
2019-03-12T08:53:53.042Z,6.26
2019-03-12T08:56:47.847Z,6.15
2019-03-12T08:59:36.025Z,6.28
2019-03-12T09:02:24.958Z,3.79
2019-03-12T09:05:18.030Z,6.12
2019-03-12T09:08:17.456Z,6.23
2019-03-12T09:11:09.459Z,6.32
2019-03-12T09:14:14.404Z,6.57
2019-03-12T09:17:09.419Z,6.79
2019-03-12T09:19:57.559Z,6.39
2019-03-12T09:22:50.672Z,6.46
2019-03-12T09:26:03.049Z,6.42
2019-03-12T09:28:49.467Z,6.64
2019-03-12T09:31:48.422Z,6.79
2019-03-12T09:34:36.282Z,6.76
2019-03-12T09:37:30.614Z,6.84
2019-03-12T09:40:18.775Z,7.08
2019-03-12T09:43:19.694Z,7.33
2019-03-12T09:46:07.830Z,7.37
2019-03-12T09:48:56.891Z,6.92
2019-03-12T09:51:34.021Z,5.88
2019-03-12T09:57:18.935Z,7.74
2019-03-12T10:00:15.585Z,7.81
2019-03-12T10:02:56.465Z,7.89
2019-03-12T10:05:36.283Z,7.88
2019-03-12T10:08:33.173Z,8.36
2019-03-12T10:11:24.261Z,8.83
2019-03-12T10:14:26.041Z,8.81
2019-03-12T10:17:14.375Z,9.21
2019-03-12T10:20:10.983Z,9.51
2019-03-12T10:23:02.481Z,9.12
2019-03-12T10:25:50.932Z,8.44
2019-03-12T10:28:32.748Z,8.19
2019-03-12T10:31:23.961Z,8.65
2019-03-12T10:34:02.468Z,8.82
2019-03-12T10:36:53.630Z,9.16
2019-03-12T10:40:18.300Z,9.09
2019-03-12T10:43:24.564Z,9.15
2019-03-12T10:46:04.156Z,9.10
2019-03-12T10:48:41.672Z,9.54
2019-03-12T10:51:13.034Z,9.49
2019-03-12T10:53:41.676Z,9.10
2019-03-12T10:56:13.388Z,9.21
2019-03-12T10:58:42.700Z,9.54
2019-03-12T11:01:17.795Z,9.16
2019-03-12T11:03:46.884Z,8.00
2019-03-12T11:06:18.773Z,9.78
2019-03-12T11:08:52.940Z,9.60
2019-03-12T11:11:22.106Z,9.30
2019-03-12T11:13:51.306Z,9.49
2019-03-12T11:16:20.487Z,9.79
2019-03-12T11:18:54.397Z,9.99
2019-03-12T11:21:24.742Z,9.97
2019-03-12T11:23:56.381Z,9.54
2019-03-12T11:26:25.892Z,9.94
2019-03-12T11:28:57.481Z,10.57
2019-03-12T11:31:26.681Z,10.05
2019-03-12T11:33:55.955Z,9.91
2019-03-12T11:36:28.859Z,9.90
2019-03-12T11:38:58.027Z,10.73
2019-03-12T11:41:27.215Z,11.14
2019-03-12T11:43:57.420Z,10.56
2019-03-12T11:46:40.832Z,9.94
2019-03-12T11:49:05.829Z,9.40
2019-03-12T11:51:36.657Z,10.12
2019-03-12T11:54:06.070Z,9.99
2019-03-12T11:56:35.256Z,10.80
2019-03-12T11:59:06.640Z,10.85
2019-03-12T12:01:37.291Z,10.01
2019-03-12T12:04:06.552Z,10.76
2019-03-12T12:06:35.736Z,10.67
2019-03-12T12:09:06.639Z,10.32
2019-03-12T12:11:38.645Z,10.02
2019-03-12T12:14:08.145Z,10.62
2019-03-12T12:16:39.629Z,10.95
2019-03-12T12:19:10.886Z,10.15
2019-03-12T12:21:40.166Z,10.68
2019-03-12T12:24:09.364Z,10.12
2019-03-12T12:26:40.999Z,9.98
2019-03-12T12:29:10.186Z,10.12
2019-03-12T12:31:39.374Z,10.24
2019-03-12T12:34:09.878Z,11.36
2019-03-12T12:36:42.048Z,11.01
2019-03-12T12:39:14.297Z,11.09
2019-03-12T12:41:49.525Z,9.24
2019-03-12T12:44:19.782Z,11.57
2019-03-12T12:46:48.945Z,10.36
2019-03-12T12:49:19.846Z,10.46
2019-03-12T12:51:50.632Z,10.43
2019-03-12T12:54:19.836Z,10.46
2019-03-12T12:56:49.075Z,11.08
2019-03-12T12:59:23.767Z,10.72
2019-03-12T13:01:53.053Z,10.35
2019-03-12T13:04:22.325Z,10.49
2019-03-12T13:06:51.686Z,10.59
2019-03-12T13:09:21.063Z,10.57
2019-03-12T13:11:50.286Z,10.17
2019-03-12T13:14:19.860Z,10.02
2019-03-12T13:16:49.463Z,10.00
2019-03-12T13:19:18.690Z,10.03
2019-03-12T13:22:09.356Z,9.97
2019-03-12T13:24:40.506Z,9.83
2019-03-12T13:27:09.775Z,10.06
2019-03-12T13:29:42.081Z,10.36
2019-03-12T13:32:14.071Z,10.18
2019-03-12T13:34:45.395Z,10.30
2019-03-12T13:37:20.187Z,10.96
2019-03-12T13:40:09.775Z,11.45
2019-03-12T13:42:41.279Z,10.87
2019-03-12T13:45:14.175Z,10.98
2019-03-12T13:47:43.402Z,11.75
2019-03-12T13:50:14.927Z,11.45
2019-03-12T13:52:47.345Z,11.66
2019-03-12T13:55:18.928Z,10.87
2019-03-12T13:57:52.201Z,11.12
2019-03-12T14:00:23.466Z,11.91
2019-03-12T14:02:53.862Z,10.79
2019-03-12T14:05:24.839Z,10.94
2019-03-12T14:07:59.069Z,10.74
2019-03-12T14:10:30.584Z,10.66
2019-03-12T14:13:00.145Z,10.86
2019-03-12T14:15:31.780Z,11.16
2019-03-12T14:18:08.121Z,11.26
2019-03-12T14:20:50.753Z,10.94
2019-03-12T14:23:35.187Z,10.76
2019-03-12T14:26:06.045Z,11.19
2019-03-12T14:28:35.362Z,11.52
2019-03-12T14:31:04.841Z,11.47
2019-03-12T14:33:37.060Z,10.80
2019-03-12T14:36:08.051Z,10.57
2019-03-12T14:38:42.673Z,11.37
2019-03-12T14:41:12.313Z,11.96
2019-03-12T14:43:41.974Z,11.84
2019-03-12T14:46:16.089Z,11.52
2019-03-12T14:48:57.148Z,12.04
2019-03-12T14:51:42.968Z,11.41
2019-03-12T14:54:13.350Z,11.42
2019-03-12T14:56:44.050Z,11.40
2019-03-12T14:59:23.726Z,11.39
2019-03-12T15:01:55.660Z,11.99
2019-03-12T15:04:27.658Z,11.21
2019-03-12T15:07:06.336Z,11.12
2019-03-12T15:09:35.822Z,11.71
2019-03-12T15:12:05.026Z,11.64
2019-03-12T15:14:34.268Z,11.06
2019-03-12T15:17:03.638Z,10.80
2019-03-12T15:19:35.509Z,11.38
2019-03-12T15:22:04.780Z,10.89
2019-03-12T15:24:37.251Z,11.34
2019-03-12T15:27:09.545Z,10.83
2019-03-12T15:29:42.122Z,10.89
2019-03-12T15:32:13.719Z,10.98
2019-03-12T15:34:44.663Z,10.57
2019-03-12T15:37:15.461Z,10.61
2019-03-12T15:39:47.320Z,10.61
2019-03-12T15:42:21.600Z,10.59
2019-03-12T15:44:54.018Z,10.27
2019-03-12T15:47:26.033Z,10.63
2019-03-12T15:49:55.178Z,10.65
2019-03-12T15:52:24.661Z,11.14
2019-03-12T15:54:53.965Z,10.44
2019-03-12T15:57:29.371Z,10.50
2019-03-12T15:59:58.813Z,10.34
2019-03-12T16:02:30.596Z,10.36
2019-03-12T16:05:00.037Z,10.52
2019-03-12T16:07:31.605Z,10.33
2019-03-12T16:10:01.895Z,10.47
2019-03-12T16:12:32.022Z,10.23
2019-03-12T16:15:02.248Z,10.45
2019-03-12T16:17:34.097Z,10.64
2019-03-12T16:20:10.876Z,10.55
2019-03-12T16:22:41.292Z,10.45
2019-03-12T16:25:11.850Z,10.04
2019-03-12T16:27:50.985Z,10.28
2019-03-12T16:30:20.552Z,1.96
2019-03-12T16:32:57.409Z,4.44
2019-03-12T16:35:26.752Z,10.24
2019-03-12T16:38:02.656Z,10.17
2019-03-12T16:40:32.801Z,9.95
2019-03-12T16:43:03.479Z,9.96
2019-03-12T16:45:34.127Z,9.77
2019-03-12T16:48:03.509Z,10.12
2019-03-12T16:50:32.642Z,10.45
2019-03-12T16:53:01.836Z,9.92
2019-03-12T16:55:33.746Z,10.36
2019-03-12T16:58:03.204Z,10.06
2019-03-12T17:00:35.683Z,10.17
2019-03-12T17:03:05.219Z,9.72
2019-03-12T17:05:34.538Z,9.89
2019-03-12T17:08:04.236Z,9.73
2019-03-12T17:10:33.396Z,9.83
2019-03-12T17:13:06.039Z,9.60
2019-03-12T17:15:36.723Z,9.83
2019-03-12T17:18:05.905Z,9.52
2019-03-12T17:20:35.291Z,9.54
2019-03-12T17:23:04.486Z,9.44
2019-03-12T17:25:36.664Z,9.48
2019-03-12T17:28:05.808Z,9.63
2019-03-12T17:30:37.639Z,9.42
2019-03-12T17:33:07.057Z,7.27
2019-03-12T17:35:36.306Z,9.15
2019-03-12T17:38:10.194Z,9.10
2019-03-12T17:40:39.377Z,9.05
2019-03-12T17:43:13.691Z,8.94
2019-03-12T17:45:43.035Z,8.87
2019-03-12T17:48:12.150Z,8.88
2019-03-12T17:50:41.360Z,8.85
2019-03-12T17:53:12.042Z,8.81
2019-03-12T17:55:44.352Z,8.98
2019-03-12T17:58:13.804Z,8.72
2019-03-12T18:00:47.801Z,8.72
2019-03-12T18:03:16.966Z,8.93
2019-03-12T18:05:47.906Z,8.88
2019-03-12T18:08:17.046Z,9.11
2019-03-12T18:10:49.010Z,8.82
2019-03-12T18:13:18.317Z,8.69
2019-03-12T18:15:49.806Z,8.72
2019-03-12T18:18:19.041Z,8.84
2019-03-12T18:20:48.221Z,8.60
2019-03-12T18:23:20.858Z,8.63
2019-03-12T18:25:50.452Z,8.85
2019-03-12T18:28:20.892Z,8.84
2019-03-12T18:31:01.310Z,8.66
2019-03-12T18:33:30.457Z,8.57
2019-03-12T18:36:06.434Z,8.59
2019-03-12T18:38:38.319Z,8.44
2019-03-12T18:41:09.276Z,8.38
2019-03-12T18:43:38.511Z,8.52
2019-03-12T18:46:08.043Z,8.24
2019-03-12T18:48:39.689Z,8.43
2019-03-12T18:51:08.802Z,8.28
2019-03-12T18:53:39.241Z,8.27
2019-03-12T18:56:09.518Z,8.19
2019-03-12T18:58:48.484Z,8.36
2019-03-12T19:01:16.661Z,8.40
2019-03-12T19:03:54.953Z,8.24
2019-03-12T19:06:24.128Z,8.26
2019-03-12T19:08:53.421Z,8.28
2019-03-12T19:11:22.969Z,8.12
2019-03-12T19:13:52.837Z,8.18
2019-03-12T19:16:22.095Z,8.13
2019-03-12T19:18:51.596Z,8.30
2019-03-12T19:21:20.743Z,8.23
2019-03-12T19:23:52.276Z,8.19
2019-03-12T19:26:21.584Z,8.00
2019-03-12T19:28:51.399Z,8.05
2019-03-12T19:31:51.724Z,8.06
2019-03-12T19:34:35.048Z,7.98
2019-03-12T19:37:05.704Z,7.80
2019-03-12T19:39:35.677Z,7.94
2019-03-12T19:42:05.439Z,-1.33
2019-03-12T19:44:36.045Z,7.85
2019-03-12T19:47:05.289Z,7.95
2019-03-12T19:49:34.426Z,8.06
2019-03-12T19:52:05.974Z,7.99
2019-03-12T19:54:41.257Z,7.93
2019-03-12T19:57:10.368Z,7.89
2019-03-12T19:59:39.482Z,7.89
2019-03-12T20:02:15.892Z,8.02
2019-03-12T20:04:47.434Z,8.04
2019-03-12T20:07:17.604Z,8.03
2019-03-12T20:10:12.996Z,8.26
2019-03-12T20:13:28.287Z,8.20
2019-03-12T20:16:47.462Z,8.22
2019-03-12T20:20:08.157Z,8.16
2019-03-12T20:23:14.226Z,8.12
2019-03-12T20:26:29.945Z,8.40
2019-03-12T20:29:34.817Z,8.29
2019-03-12T20:32:50.315Z,8.31
2019-03-12T20:35:57.659Z,8.13
2019-03-12T20:39:35.272Z,8.83
2019-03-12T20:42:39.371Z,8.49
2019-03-12T20:46:16.972Z,8.79
2019-03-12T20:49:25.190Z,8.55
2019-03-12T20:52:29.736Z,8.31
2019-03-12T20:55:35.973Z,8.05
2019-03-12T20:58:50.899Z,8.10
2019-03-12T21:02:06.497Z,8.16
2019-03-12T21:05:27.070Z,8.14
2019-03-12T21:08:48.577Z,8.17
2019-03-12T21:11:59.190Z,8.01
2019-03-12T21:15:20.629Z,8.01
2019-03-12T21:18:34.846Z,7.98
2019-03-12T21:21:39.849Z,7.97
2019-03-12T21:24:37.526Z,5.99
2019-03-12T21:27:30.810Z,8.02
2019-03-12T21:29:58.378Z,8.09
2019-03-12T21:32:30.675Z,8.32
2019-03-12T21:34:59.811Z,8.27
2019-03-12T21:37:30.040Z,8.24
2019-03-12T21:39:59.166Z,8.08
2019-03-12T21:42:29.937Z,7.73
2019-03-12T21:44:59.094Z,8.01
2019-03-12T21:47:29.968Z,7.99
2019-03-12T21:50:00.634Z,8.12
2019-03-12T21:52:34.915Z,8.00
2019-03-12T21:55:04.482Z,8.04
2019-03-12T21:57:33.643Z,8.25
2019-03-12T22:00:07.384Z,7.95
2019-03-12T22:02:36.514Z,7.92
2019-03-12T22:05:05.923Z,7.86
2019-03-12T22:07:35.029Z,7.88
2019-03-12T22:10:04.600Z,7.68
2019-03-12T22:12:33.904Z,7.83
2019-03-12T22:15:04.290Z,7.70
2019-03-12T22:17:36.119Z,7.78
2019-03-12T22:20:07.618Z,7.45
2019-03-12T22:23:04.362Z,7.83
2019-03-12T22:25:33.493Z,7.55
2019-03-12T22:28:04.470Z,7.97
2019-03-12T22:30:33.872Z,7.91
2019-03-12T22:33:06.256Z,8.03
2019-03-12T22:35:35.351Z,8.03
2019-03-12T22:38:04.500Z,7.94
2019-03-12T22:40:33.709Z,7.88
2019-03-12T22:43:03.974Z,7.92
2019-03-12T22:45:33.233Z,8.28
2019-03-12T22:48:05.387Z,8.35
2019-03-12T22:50:37.655Z,8.35
2019-03-12T22:53:06.988Z,8.34
2019-03-12T22:55:38.154Z,8.47
2019-03-12T22:58:07.282Z,8.69
2019-03-12T23:00:39.762Z,8.32
2019-03-12T23:03:09.056Z,8.25
2019-03-12T23:05:38.762Z,8.38
2019-03-12T23:08:13.331Z,8.70
2019-03-12T23:10:43.602Z,8.58
2019-03-12T23:13:15.214Z,8.88
2019-03-12T23:15:44.306Z,9.24
2019-03-12T23:18:13.709Z,9.59
2019-03-12T23:20:46.946Z,9.60
2019-03-12T23:23:21.334Z,9.53
2019-03-12T23:25:50.496Z,9.97
2019-03-12T23:28:19.772Z,10.23
2019-03-12T23:30:48.861Z,10.33
2019-03-12T23:33:18.220Z,10.09
2019-03-12T23:35:47.496Z,10.27
2019-03-12T23:38:21.217Z,8.52
2019-03-12T23:40:51.269Z,10.10
2019-03-12T23:43:20.575Z,10.14
2019-03-12T23:45:51.891Z,9.90
2019-03-12T23:48:21.354Z,9.82
2019-03-12T23:50:54.837Z,9.73
2019-03-12T23:53:25.137Z,9.69
2019-03-12T23:55:55.097Z,9.72
2019-03-12T23:58:29.556Z,9.47
